Wetterdaten: Woche 09.02.15 - 15.02.15 (KW7)
Datum Zeit Temp. A. Feuchte A. Luftdruck Regen Wind Richtung Taupunkt Windchill Windben
09.02.2015 00:00 -1,7 C 68 % 1022,2 hPa 0,0 l/m 13,4 km/h N -6,8 C -7,9 C 33,0 km/h
09.02.2015 01:00 -1,5 C 65 % 1022,4 hPa 0,0 l/m 13,6 km/h N -7,3 C -7,8 C 33,0 km/h
09.02.2015 02:00 -1,7 C 74 % 1022,7 hPa 0,0 l/m 12,4 km/h N -5,8 C -7,2 C 28,5 km/h
09.02.2015 03:00 -1,9 C 78 % 1022,2 hPa 0,0 l/m 12,1 km/h N -5,2 C -7,1 C 29,4 km/h
09.02.2015 04:00 -1,1 C 70 % 1021,9 hPa 0,0 l/m 17,6 km/h N -5,8 C -9,8 C 42,3 km/h
09.02.2015 05:00 -0,6 C 63 % 1021,5 hPa 0,0 l/m 15,8 km/h N -6,8 C -8,1 C 35,0 km/h
09.02.2015 06:00 -0,4 C 59 % 1021,1 hPa 0,0 l/m 17,2 km/h N -7,4 C -8,7 C 42,7 km/h
09.02.2015 07:00 -0,3 C 59 % 1021,3 hPa 0,0 l/m 16,6 km/h N -7,3 C -8,3 C 42,3 km/h
09.02.2015 08:00 -1,4 C 76 % 1021,3 hPa 0,0 l/m 12,6 km/h N -5,1 C -6,9 C 37,8 km/h
09.02.2015 09:00 -2,2 C 86 % 1020,8 hPa 0,0 l/m 10,7 km/h N -4,3 C -6,5 C 35,4 km/h
09.02.2015 10:00 -1,8 C 85 % 1019,1 hPa 0,0 l/m 15,6 km/h N -4,0 C -9,5 C 43,1 km/h
09.02.2015 11:00 -1,5 C 84 % 1018,7 hPa 0,0 l/m 19,3 km/h N -3,8 C -11,2 C 46,7 km/h
09.02.2015 12:00 -1,0 C 85 % 1017,8 hPa 0,0 l/m 21,4 km/h N -3,3 C -11,6 C 49,9 km/h
09.02.2015 13:00 -0,5 C 85 % 1016,8 hPa 0,0 l/m 21,6 km/h N -2,7 C -11,0 C 47,5 km/h
09.02.2015 14:00 -0,4 C 85 % 1016,1 hPa 0,0 l/m 22,0 km/h N -2,6 C -11,0 C 50,3 km/h
09.02.2015 15:00 -0,4 C 84 % 1016,3 hPa 0,0 l/m 22,6 km/h N -2,8 C -11,2 C 54,3 km/h
09.02.2015 16:00 -0,1 C 83 % 1016,4 hPa 0,0 l/m 22,3 km/h N -2,7 C -10,8 C 51,1 km/h
09.02.2015 17:00 0,2 C 83 % 1016,7 hPa 0,0 l/m 21,8 km/h N -2,4 C -10,2 C 48,3 km/h
09.02.2015 18:00 0,7 C 83 % 1016,9 hPa 0,0 l/m 24,2 km/h N -1,8 C -10,4 C 50,7 km/h
09.02.2015 19:00 1,3 C 84 % 1017,8 hPa 0,3 l/m 25,8 km/h N -1,1 C -10,2 C 54,3 km/h
09.02.2015 20:00 1,8 C 86 % 1018,6 hPa 0,5 l/m 25,5 km/h N -0,4 C -9,5 C 57,5 km/h
09.02.2015 21:00 2,0 C 86 % 1019,6 hPa 0,0 l/m 20,0 km/h N -0,1 C -7,0 C 45,5 km/h
09.02.2015 22:00 2,3 C 85 % 1020,6 hPa 0,3 l/m 20,9 km/h N -0,1 C -7,1 C 45,9 km/h
09.02.2015 23:00 2,5 C 83 % 1020,7 hPa 0,3 l/m 24,3 km/h N -0,1 C -8,1 C 48,7 km/h
10.02.2015 00:00 2,8 C 81 % 1020,8 hPa 0,0 l/m 24,9 km/h N -0,1 C -7,8 C 50,3 km/h
10.02.2015 01:00 3,0 C 80 % 1021,8 hPa 0,0 l/m 20,2 km/h N -0,1 C -5,9 C 43,5 km/h
10.02.2015 02:00 3,1 C 80 % 1021,8 hPa 0,0 l/m 20,7 km/h N -0,0 C -5,9 C 44,3 km/h
10.02.2015 03:00 2,9 C 82 % 1022,3 hPa 0,0 l/m 17,4 km/h N 0,1 C -4,7 C 41,0 km/h
10.02.2015 04:00 3,0 C 81 % 1022,8 hPa 0,0 l/m 14,5 km/h N 0,1 C -3,0 C 33,4 km/h
10.02.2015 05:00 3,6 C 77 % 1023,2 hPa 0,0 l/m 17,6 km/h N -0,0 C -3,8 C 42,6 km/h
10.02.2015 06:00 3,7 C 76 % 1023,5 hPa 0,3 l/m 16,2 km/h N -0,1 C -3,1 C 39,0 km/h
10.02.2015 07:00 3,6 C 77 % 1024,3 hPa 0,0 l/m 15,7 km/h N -0,0 C -3,0 C 37,0 km/h
10.02.2015 08:00 3,4 C 79 % 1024,8 hPa 0,0 l/m 17,1 km/h N 0,2 C -3,9 C 41,5 km/h
10.02.2015 09:00 3,6 C 79 % 1024,5 hPa 0,0 l/m 14,0 km/h N 0,3 C -2,0 C 33,0 km/h
10.02.2015 10:00 4,8 C 73 % 1024,7 hPa 0,0 l/m 17,0 km/h N 0,3 C -2,2 C 40,6 km/h
10.02.2015 11:00 5,0 C 71 % 1024,8 hPa 0,0 l/m 17,4 km/h N 0,1 C -2,0 C 38,6 km/h
10.02.2015 12:00 4,9 C 71 % 1024,9 hPa 0,0 l/m 14,3 km/h N 0,2 C -0,5 C 37,8 km/h
10.02.2015 13:00 5,1 C 72 % 1025,1 hPa 0,0 l/m 13,1 km/h N 0,3 C 0,2 C 32,6 km/h
10.02.2015 14:00 5,1 C 71 % 1025,1 hPa 0,0 l/m 14,1 km/h N 0,3 C -0,2 C 29,4 km/h
10.02.2015 15:00 5,1 C 72 % 1025,0 hPa 0,0 l/m 16,3 km/h N 0,4 C -1,4 C 33,4 km/h
10.02.2015 16:00 5,0 C 71 % 1025,5 hPa 0,0 l/m 10,7 km/h N 0,2 C 1,6 C 24,5 km/h
10.02.2015 17:00 4,8 C 73 % 1026,1 hPa 0,0 l/m 11,3 km/h N 0,3 C 1,1 C 26,1 km/h
10.02.2015 18:00 4,8 C 72 % 1026,6 hPa 0,0 l/m 8,2 km/h N 0,2 C 3,3 C 24,1 km/h
10.02.2015 19:00 4,8 C 73 % 1027,0 hPa 0,0 l/m 7,4 km/h N 0,4 C 3,6 C 22,1 km/h
10.02.2015 20:00 4,6 C 73 % 1027,4 hPa 0,0 l/m 5,6 km/h N 0,2 C 4,4 C 18,9 km/h
10.02.2015 21:00 4,5 C 74 % 1027,8 hPa 0,0 l/m 7,1 km/h N 0,3 C 3,9 C 21,3 km/h
10.02.2015 22:00 4,3 C 75 % 1027,8 hPa 0,0 l/m 5,9 km/h N 0,2 C 4,3 C 19,3 km/h
10.02.2015 23:00 3,6 C 77 % 1027,8 hPa 0,0 l/m 5,0 km/h N -0,1 C 3,6 C 16,5 km/h
11.02.2015 00:00 3,0 C 79 % 1027,9 hPa 0,0 l/m 4,1 km/h N -0,3 C 3,0 C 15,3 km/h
11.02.2015 01:00 3,1 C 80 % 1028,0 hPa 0,0 l/m 4,4 km/h N -0,0 C 3,1 C 15,7 km/h
11.02.2015 02:00 2,9 C 80 % 1028,0 hPa 0,0 l/m 5,0 km/h N -0,2 C 2,9 C 15,3 km/h
11.02.2015 03:00 2,8 C 80 % 1027,9 hPa 0,0 l/m 5,0 km/h N -0,3 C 2,8 C 15,7 km/h
11.02.2015 04:00 2,7 C 80 % 1027,8 hPa 0,0 l/m 5,5 km/h N -0,4 C 2,5 C 16,9 km/h
11.02.2015 05:00 2,5 C 81 % 1027,8 hPa 0,0 l/m 2,8 km/h N -0,4 C 2,5 C 9,7 km/h
11.02.2015 06:00 2,5 C 81 % 1027,8 hPa 0,0 l/m 3,1 km/h N -0,4 C 2,5 C 10,1 km/h
11.02.2015 07:00 2,5 C 81 % 1027,9 hPa 0,0 l/m 4,3 km/h N -0,5 C 2,5 C 14,5 km/h
11.02.2015 08:00 2,6 C 81 % 1028,1 hPa 0,0 l/m 7,1 km/h N -0,3 C 2,0 C 18,5 km/h
11.02.2015 09:00 2,7 C 81 % 1028,3 hPa 0,0 l/m 6,0 km/h N -0,2 C 2,5 C 16,5 km/h
11.02.2015 10:00 2,9 C 81 % 1028,1 hPa 0,0 l/m 6,0 km/h N -0,1 C 2,4 C 16,5 km/h
11.02.2015 11:00 3,1 C 80 % 1028,0 hPa 0,0 l/m 4,2 km/h N 0,0 C 3,1 C 11,7 km/h
11.02.2015 12:00 3,3 C 80 % 1027,8 hPa 0,0 l/m 3,1 km/h N 0,2 C 3,3 C 9,7 km/h
11.02.2015 13:00 3,4 C 79 % 1027,4 hPa 0,0 l/m 4,2 km/h N 0,2 C 3,4 C 12,1 km/h
11.02.2015 14:00 3,4 C 80 % 1026,9 hPa 0,0 l/m 3,6 km/h N 0,2 C 3,4 C 11,3 km/h
11.02.2015 15:00 3,3 C 80 % 1026,7 hPa 0,0 l/m 2,8 km/h N 0,2 C 3,3 C 10,5 km/h
11.02.2015 16:00 3,2 C 81 % 1026,6 hPa 0,0 l/m 2,3 km/h N 0,1 C 3,2 C 8,9 km/h
11.02.2015 17:00 2,9 C 81 % 1027,0 hPa 0,0 l/m 1,7 km/h N -0,0 C 2,9 C 7,6 km/h
11.02.2015 18:00 2,8 C 82 % 1027,4 hPa 0,0 l/m 1,1 km/h N -0,0 C 2,8 C 6,8 km/h
11.02.2015 19:00 2,7 C 82 % 1027,7 hPa 0,0 l/m 1,1 km/h N -0,0 C 2,7 C 6,0 km/h
11.02.2015 20:00 2,5 C 83 % 1027,9 hPa 0,0 l/m 0,6 km/h N -0,1 C 2,5 C 4,0 km/h
11.02.2015 21:00 2,3 C 83 % 1027,8 hPa 0,0 l/m 0,2 km/h N -0,2 C 2,3 C 3,6 km/h
11.02.2015 22:00 2,2 C 84 % 1027,8 hPa 0,0 l/m 0,0 km/h N -0,3 C 2,2 C 0,0 km/h
11.02.2015 23:00 2,0 C 84 % 1027,8 hPa 0,0 l/m 0,1 km/h N -0,4 C 2,0 C 2,4 km/h
12.02.2015 00:00 1,9 C 84 % 1027,9 hPa 0,0 l/m 0,1 km/h N -0,4 C 1,9 C 2,8 km/h
12.02.2015 01:00 1,9 C 85 % 1027,7 hPa 0,0 l/m 0,5 km/h N -0,3 C 1,9 C 6,0 km/h
12.02.2015 02:00 1,9 C 85 % 1027,5 hPa 0,0 l/m 0,5 km/h N -0,3 C 1,9 C 5,2 km/h
12.02.2015 03:00 1,9 C 85 % 1027,1 hPa 0,0 l/m 0,8 km/h N -0,4 C 1,9 C 6,0 km/h
12.02.2015 04:00 1,8 C 85 % 1026,8 hPa 0,0 l/m 0,4 km/h N -0,5 C 1,8 C 4,8 km/h
12.02.2015 05:00 1,8 C 85 % 1026,6 hPa 0,0 l/m 0,4 km/h N -0,5 C 1,8 C 5,6 km/h
12.02.2015 06:00 1,8 C 85 % 1026,4 hPa 0,0 l/m 0,5 km/h N -0,5 C 1,8 C 6,8 km/h
12.02.2015 07:00 1,5 C 85 % 1026,7 hPa 0,0 l/m 0,2 km/h N -0,8 C 1,5 C 5,2 km/h
12.02.2015 08:00 1,6 C 85 % 1027,0 hPa 0,0 l/m 1,5 km/h N -0,6 C 1,6 C 7,6 km/h
12.02.2015 09:00 3,5 C 83 % 1026,9 hPa 0,0 l/m 3,6 km/h N 0,9 C 3,5 C 10,9 km/h
12.02.2015 10:00 5,9 C 75 % 1026,7 hPa 0,0 l/m 3,4 km/h N 1,8 C 5,9 C 10,9 km/h
12.02.2015 11:00 7,1 C 70 % 1026,2 hPa 0,0 l/m 3,8 km/h N 2,0 C 7,1 C 13,3 km/h
12.02.2015 12:00 7,9 C 69 % 1025,6 hPa 0,0 l/m 4,5 km/h N 2,6 C 7,9 C 20,1 km/h
12.02.2015 13:00 8,6 C 61 % 1025,2 hPa 0,0 l/m 7,1 km/h N 1,5 C 7,7 C 21,7 km/h
12.02.2015 14:00 8,3 C 61 % 1024,8 hPa 0,0 l/m 8,3 km/h N 1,1 C 6,8 C 20,9 km/h
12.02.2015 15:00 7,2 C 63 % 1024,9 hPa 0,0 l/m 8,3 km/h N 0,5 C 5,7 C 22,1 km/h
12.02.2015 16:00 6,0 C 66 % 1024,9 hPa 0,0 l/m 6,8 km/h N 0,0 C 5,4 C 21,7 km/h
12.02.2015 17:00 4,9 C 69 % 1025,2 hPa 0,0 l/m 4,6 km/h N -0,3 C 4,9 C 15,3 km/h
12.02.2015 18:00 3,4 C 79 % 1025,6 hPa 0,0 l/m 1,8 km/h N -0,0 C 3,4 C 8,5 km/h
12.02.2015 19:00 2,3 C 82 % 1026,0 hPa 0,0 l/m 1,0 km/h N -0,5 C 2,3 C 7,2 km/h
12.02.2015 20:00 1,5 C 82 % 1026,2 hPa 0,0 l/m 0,1 km/h N -1,3 C 1,5 C 1,6 km/h
12.02.2015 21:00 -0,4 C 82 % 1026,2 hPa 0,0 l/m 0,0 km/h N -3,0 C -0,4 C 1,2 km/h
12.02.2015 22:00 -1,5 C 84 % 1026,0 hPa 0,0 l/m 0,0 km/h N -3,9 C -1,5 C 0,0 km/h
12.02.2015 23:00 -2,2 C 85 % 1025,7 hPa 0,0 l/m 0,0 km/h N -4,4 C -2,2 C 0,0 km/h
13.02.2015 00:00 -2,9 C 86 % 1025,4 hPa 0,0 l/m 0,0 km/h N -5,0 C -2,9 C 0,0 km/h
13.02.2015 01:00 -3,4 C 86 % 1025,2 hPa 0,0 l/m 0,0 km/h N -5,4 C -3,4 C 0,0 km/h
13.02.2015 02:00 -3,8 C 86 % 1025,2 hPa 0,0 l/m 0,0 km/h N -5,8 C -3,8 C 0,0 km/h
13.02.2015 03:00 -4,3 C 86 % 1024,9 hPa 0,0 l/m 0,0 km/h N -6,2 C -4,3 C 0,0 km/h
13.02.2015 04:00 -4,6 C 86 % 1024,7 hPa 0,0 l/m 0,0 km/h N -6,6 C -4,6 C 0,0 km/h
13.02.2015 05:00 -4,8 C 86 % 1024,8 hPa 0,0 l/m 0,0 km/h N -6,7 C -4,8 C 0,0 km/h
13.02.2015 06:00 -5,1 C 86 % 1024,9 hPa 0,0 l/m 0,0 km/h N -7,1 C -5,1 C 0,0 km/h
13.02.2015 07:00 -5,4 C 86 % 1025,1 hPa 0,0 l/m 0,0 km/h N -7,4 C -5,4 C 0,0 km/h
13.02.2015 08:00 -4,3 C 85 % 1025,2 hPa 0,0 l/m 0,0 km/h N -6,4 C -4,3 C 0,0 km/h
13.02.2015 09:00 -0,5 C 83 % 1025,0 hPa 0,0 l/m 0,3 km/h N -3,0 C -0,5 C 2,8 km/h
13.02.2015 10:00 2,1 C 84 % 1024,6 hPa 0,0 l/m 1,0 km/h N -0,4 C 2,1 C 5,6 km/h
13.02.2015 11:00 4,7 C 72 % 1023,9 hPa 0,0 l/m 2,3 km/h N 0,1 C 4,7 C 10,9 km/h
13.02.2015 12:00 6,1 C 69 % 1023,2 hPa 0,0 l/m 2,4 km/h N 0,7 C 6,1 C 12,5 km/h
13.02.2015 13:00 7,0 C 66 % 1022,6 hPa 0,0 l/m 2,2 km/h N 1,0 C 7,0 C 12,5 km/h
13.02.2015 14:00 7,0 C 65 % 1022,0 hPa 0,0 l/m 3,1 km/h N 0,9 C 7,0 C 15,3 km/h
13.02.2015 15:00 6,5 C 66 % 1021,8 hPa 0,0 l/m 3,2 km/h N 0,6 C 6,5 C 13,7 km/h
13.02.2015 16:00 5,5 C 68 % 1021,6 hPa 0,0 l/m 3,4 km/h N 0,1 C 5,5 C 14,1 km/h
13.02.2015 17:00 4,0 C 72 % 1021,7 hPa 0,0 l/m 2,5 km/h N -0,5 C 4,0 C 11,3 km/h
13.02.2015 18:00 3,1 C 75 % 1021,7 hPa 0,0 l/m 2,5 km/h N -0,8 C 3,1 C 12,1 km/h
13.02.2015 19:00 2,4 C 77 % 1021,4 hPa 0,0 l/m 1,6 km/h N -1,1 C 2,4 C 9,2 km/h
13.02.2015 20:00 2,1 C 78 % 1021,1 hPa 0,0 l/m 2,6 km/h N -1,3 C 2,1 C 10,4 km/h
13.02.2015 21:00 2,0 C 79 % 1020,5 hPa 0,0 l/m 2,7 km/h N -1,2 C 2,0 C 10,9 km/h
13.02.2015 22:00 1,8 C 79 % 1019,9 hPa 0,0 l/m 2,2 km/h N -1,5 C 1,8 C 10,1 km/h
13.02.2015 23:00 1,4 C 79 % 1019,5 hPa 0,0 l/m 1,0 km/h N -1,8 C 1,4 C 8,9 km/h
14.02.2015 00:00 0,4 C 79 % 1019,1 hPa 0,0 l/m 0,1 km/h N -2,8 C 0,4 C 2,0 km/h
14.02.2015 01:00 -1,0 C 81 % 1018,3 hPa 0,0 l/m 0,0 km/h N -4,0 C -1,0 C 0,8 km/h
14.02.2015 02:00 -0,7 C 84 % 1017,6 hPa 0,0 l/m 1,4 km/h N -3,1 C -0,7 C 6,0 km/h
14.02.2015 03:00 -0,6 C 83 % 1017,2 hPa 0,0 l/m 2,4 km/h N -3,1 C -0,6 C 8,4 km/h
14.02.2015 04:00 -1,1 C 83 % 1016,9 hPa 0,0 l/m 0,4 km/h N -3,6 C -1,1 C 4,4 km/h
14.02.2015 05:00 -1,5 C 84 % 1017,1 hPa 0,0 l/m 0,3 km/h N -3,8 C -1,5 C 3,6 km/h
14.02.2015 06:00 -2,0 C 84 % 1017,2 hPa 0,0 l/m 0,1 km/h N -4,3 C -2,0 C 1,2 km/h
14.02.2015 07:00 -2,9 C 85 % 1017,6 hPa 0,0 l/m 0,1 km/h N -5,2 C -2,9 C 1,2 km/h
14.02.2015 08:00 -2,3 C 86 % 1018,0 hPa 0,0 l/m 0,3 km/h N -4,3 C -2,3 C 2,8 km/h
14.02.2015 09:00 0,4 C 85 % 1017,8 hPa 0,0 l/m 1,6 km/h N -1,7 C 0,4 C 6,8 km/h
14.02.2015 10:00 2,9 C 78 % 1017,3 hPa 0,0 l/m 3,5 km/h N -0,6 C 2,9 C 12,1 km/h
14.02.2015 11:00 4,1 C 74 % 1016,8 hPa 0,0 l/m 4,2 km/h N -0,0 C 4,1 C 15,7 km/h
14.02.2015 12:00 5,1 C 72 % 1015,8 hPa 0,0 l/m 4,8 km/h N 0,5 C 5,1 C 18,9 km/h
14.02.2015 13:00 6,1 C 70 % 1015,0 hPa 0,0 l/m 4,8 km/h N 1,1 C 6,1 C 18,5 km/h
14.02.2015 14:00 6,2 C 69 % 1014,5 hPa 0,0 l/m 4,9 km/h N 1,0 C 6,2 C 17,7 km/h
14.02.2015 15:00 6,0 C 71 % 1014,4 hPa 0,0 l/m 4,5 km/h N 1,1 C 6,0 C 19,3 km/h
14.02.2015 16:00 5,3 C 74 % 1014,1 hPa 0,0 l/m 2,9 km/h N 1,1 C 5,3 C 13,3 km/h
14.02.2015 17:00 4,1 C 77 % 1014,3 hPa 0,0 l/m 2,5 km/h N 0,3 C 4,1 C 10,9 km/h
14.02.2015 18:00 3,3 C 79 % 1014,7 hPa 0,0 l/m 1,6 km/h N -0,1 C 3,3 C 9,7 km/h
14.02.2015 19:00 2,1 C 79 % 1014,8 hPa 0,0 l/m 0,0 km/h N -1,1 C 2,1 C 0,8 km/h
14.02.2015 20:00 0,4 C 82 % 1014,7 hPa 0,0 l/m 0,0 km/h N -2,4 C 0,4 C 0,0 km/h
14.02.2015 21:00 -0,5 C 84 % 1014,6 hPa 0,0 l/m 0,0 km/h N -2,9 C -0,5 C 0,0 km/h
14.02.2015 22:00 -1,0 C 85 % 1014,4 hPa 0,0 l/m 0,0 km/h N -3,2 C -1,0 C 0,4 km/h
14.02.2015 23:00 -1,6 C 86 % 1014,3 hPa 0,0 l/m 0,0 km/h N -3,7 C -1,6 C 0,0 km/h
15.02.2015 00:00 -1,9 C 86 % 1014,2 hPa 0,0 l/m 0,1 km/h N -4,0 C -1,9 C 0,4 km/h
15.02.2015 01:00 -2,2 C 86 % 1014,1 hPa 0,0 l/m 0,0 km/h N -4,2 C -2,2 C 0,0 km/h
15.02.2015 02:00 -2,4 C 86 % 1014,1 hPa 0,0 l/m 0,0 km/h N -4,4 C -2,4 C 0,0 km/h
15.02.2015 03:00 -1,8 C 85 % 1014,1 hPa 0,0 l/m 0,0 km/h N -4,0 C -1,8 C 0,0 km/h
15.02.2015 04:00 -1,3 C 85 % 1014,3 hPa 0,0 l/m 0,0 km/h N -3,6 C -1,3 C 0,0 km/h
15.02.2015 05:00 -0,6 C 84 % 1014,5 hPa 0,0 l/m 0,0 km/h N -3,0 C -0,6 C 0,0 km/h
15.02.2015 06:00 0,3 C 84 % 1014,6 hPa 0,0 l/m 0,0 km/h N -2,1 C 0,3 C 1,6 km/h
15.02.2015 07:00 0,2 C 84 % 1015,3 hPa 0,0 l/m 0,0 km/h N -2,2 C 0,2 C 0,0 km/h
15.02.2015 08:00 0,5 C 83 % 1015,7 hPa 0,0 l/m 0,1 km/h N -2,0 C 0,5 C 2,4 km/h
15.02.2015 09:00 3,6 C 83 % 1015,9 hPa 0,0 l/m 4,4 km/h N 1,0 C 3,6 C 16,9 km/h
15.02.2015 10:00 6,0 C 77 % 1016,2 hPa 0,0 l/m 5,1 km/h N 2,3 C 6,0 C 21,3 km/h
15.02.2015 11:00 6,7 C 74 % 1016,3 hPa 0,0 l/m 6,2 km/h N 2,3 C 6,5 C 22,1 km/h
15.02.2015 12:00 8,0 C 70 % 1016,0 hPa 0,0 l/m 5,3 km/h N 2,8 C 8,0 C 21,3 km/h
15.02.2015 13:00 8,9 C 67 % 1015,8 hPa 0,0 l/m 7,4 km/h N 3,2 C 8,0 C 23,7 km/h
15.02.2015 14:00 9,1 C 66 % 1015,9 hPa 0,0 l/m 7,7 km/h N 3,0 C 8,1 C 24,5 km/h
15.02.2015 15:00 8,6 C 67 % 1016,5 hPa 0,0 l/m 5,1 km/h N 2,8 C 8,6 C 18,5 km/h
15.02.2015 16:00 7,9 C 69 % 1016,9 hPa 0,0 l/m 1,4 km/h N 2,6 C 7,9 C 8,9 km/h
15.02.2015 17:00 6,7 C 72 % 1017,6 hPa 0,0 l/m 0,5 km/h N 2,1 C 6,7 C 4,0 km/h
15.02.2015 18:00 3,9 C 74 % 1018,6 hPa 0,0 l/m 0,0 km/h N -0,3 C 3,9 C 0,4 km/h
15.02.2015 19:00 1,7 C 79 % 1019,4 hPa 0,0 l/m 0,0 km/h N -1,5 C 1,7 C 0,4 km/h
15.02.2015 20:00 2,5 C 83 % 1019,9 hPa 0,0 l/m 1,0 km/h N -0,0 C 2,5 C 6,0 km/h
15.02.2015 21:00 2,9 C 80 % 1020,3 hPa 0,0 l/m 0,2 km/h N -0,3 C 2,9 C 2,4 km/h
15.02.2015 22:00 1,0 C 79 % 1020,6 hPa 0,0 l/m 0,0 km/h N -2,2 C 1,0 C 0,0 km/h
15.02.2015 23:00 -0,9 C 81 % 1020,8 hPa 0,0 l/m 0,0 km/h N -3,7 C -0,9 C 0,0 km/h
Min-Datum _ 13.02.15 09.02.15 15.02.15 - 11.02.15 - 13.02.15 09.02.15 11.02.15
_ Min-Zeit 07:30 06:30 03:15 - 22:00 - 07:30 11:15 22:00
Minimum _ -5,6 C 58 % 1014,0 hPa - 0,0 km/h - -7,6 C -12,1 C 0,0 km/h
Max-Datum _ 15.02.15 09.02.15 11.02.15 09.02.15 09.02.15 - 15.02.15 15.02.15 09.02.15
_ Max-Zeit 13:45 09:30 09:15 20:15 19:45 - 13:45 13:15 20:45
Maximum _ 9,3 C 86 % 1028,3 hPa 0,5 l/m 28,9 km/h
N
- 3,3 C 8,9 C 70,8 km/h
N
Durchschnitt _ 2,1 C 78 % 1022,0 hPa #1,6 l/m 6,2 km/h N -1,3 C 0,1 C 16,9 km/h